Time;durP1;ratioP1;P1;durP2;ratioP2;P2;SDS_P1;SDS_P2;PMS_P1;PMS_P2;Temp;Humidity;BMP_temperature;BMP_pressure;BME280_temperature;BME280_humidity;BME280_pressure;Samples;Min_cycle;Max_cycle;Signal;HPM_P1;HPM_P2
2022/10/28 00:01:06;;;;;;;25.02;16.23;;;;;;;14.28;68.09;101167.53;4984541;28;96911;-81
2022/10/28 00:03:32;;;;;;;22.70;14.50;;;;;;;14.31;68.13;101171.84;4977171;28;101762;-80
2022/10/28 00:06:06;;;;;;;20.90;15.50;;;;;;;14.26;67.99;101169.41;4994340;28;100989;-79
2022/10/28 00:08:32;;;;;;;21.55;14.50;;;;;;;14.30;68.18;101171.00;4985750;28;96917;-80
2022/10/28 00:11:03;;;;;;;20.77;15.20;;;;;;;14.06;68.77;101162.19;4964307;28;97193;-80
2022/10/28 00:13:29;;;;;;;20.80;14.95;;;;;;;14.09;68.09;101163.84;4986945;28;97554;-79
2022/10/28 00:15:54;;;;;;;20.40;14.90;;;;;;;14.05;68.83;101163.09;4982942;28;97773;-79
2022/10/28 00:18:20;;;;;;;19.70;15.57;;;;;;;14.01;68.75;101167.59;4989528;28;97270;-79
2022/10/28 00:20:45;;;;;;;17.55;14.43;;;;;;;13.99;68.90;101152.72;4977932;28;96992;-80
2022/10/28 00:23:11;;;;;;;20.83;13.95;;;;;;;14.10;68.56;101169.06;4977612;28;101329;-80
2022/10/28 00:25:36;;;;;;;21.35;14.80;;;;;;;14.09;68.45;101159.44;4959415;28;101266;-79
2022/10/28 00:28:02;;;;;;;22.77;15.60;;;;;;;14.04;67.82;101153.44;4970072;28;97181;-79
2022/10/28 00:30:27;;;;;;;22.77;14.90;;;;;;;14.06;68.39;101156.91;4961536;28;97362;-81
2022/10/28 00:32:53;;;;;;;23.88;15.07;;;;;;;14.10;67.84;101153.22;4995130;28;101303;-79
2022/10/28 00:35:19;;;;;;;22.92;14.82;;;;;;;13.92;68.19;101117.78;4952654;28;101335;-79
2022/10/28 00:37:44;;;;;;;20.52;14.40;;;;;;;14.10;68.39;101142.66;4972515;28;97168;-79
2022/10/28 00:40:10;;;;;;;21.13;14.70;;;;;;;14.15;67.88;101145.16;4986424;28;97471;-83
2022/10/28 00:42:36;;;;;;;19.88;14.75;;;;;;;14.14;68.17;101138.16;4979433;28;101879;-79
2022/10/28 00:45:02;;;;;;;20.90;14.35;;;;;;;14.00;68.39;101136.00;4987083;28;101512;-80
2022/10/28 00:47:46;;;;;;;21.80;14.20;;;;;;;14.01;68.04;101141.22;4975702;28;97007;-79
2022/10/28 00:50:24;;;;;;;21.77;14.52;;;;;;;14.02;68.25;101144.72;4990941;28;97346;-80
2022/10/28 00:52:54;;;;;;;24.00;14.45;;;;;;;14.06;68.02;101137.56;4967761;28;101694;-79
2022/10/28 00:55:21;;;;;;;17.70;13.80;;;;;;;14.01;68.09;101135.94;5000235;28;101353;-80
2022/10/28 00:57:47;;;;;;;23.17;13.55;;;;;;;14.01;68.33;101129.78;4974737;28;97408;-79
2022/10/28 01:00:13;;;;;;;16.50;12.90;;;;;;;13.99;68.59;101136.91;4970411;28;96960;-80
2022/10/28 01:02:44;;;;;;;17.98;14.20;;;;;;;13.97;68.01;101134.31;4956165;28;101575;-79
2022/10/28 01:05:11;;;;;;;21.33;14.10;;;;;;;13.79;68.56;101105.94;4966027;28;101226;-83
2022/10/28 01:07:37;;;;;;;23.15;13.32;;;;;;;13.94;68.14;101121.25;4954500;28;96869;-81
2022/10/28 01:10:02;;;;;;;20.08;14.10;;;;;;;13.94;68.64;101115.97;4981548;28;96720;-79
2022/10/28 01:12:36;;;;;;;20.25;13.73;;;;;;;13.94;68.78;101120.38;4995387;28;97416;-80
2022/10/28 01:15:04;;;;;;;23.60;14.57;;;;;;;13.91;68.37;101121.34;4997402;28;96747;-80
2022/10/28 01:18:07;;;;;;;20.52;12.75;;;;;;;13.83;68.81;101112.84;4996567;28;97195;-79
2022/10/28 01:20:48;;;;;;;18.75;13.00;;;;;;;13.86;68.22;101115.38;5000864;28;96770;-79
2022/10/28 01:23:25;;;;;;;18.70;13.23;;;;;;;13.71;67.83;101092.16;4996662;28;98598;-79
2022/10/28 01:26:00;;;;;;;20.90;13.45;;;;;;;13.80;68.96;101108.53;4980315;28;99437;-79
2022/10/28 01:28:40;;;;;;;20.00;13.20;;;;;;;13.73;68.40;101103.50;4991819;28;97049;-79
2022/10/28 01:31:11;;;;;;;24.63;13.57;;;;;;;13.79;68.05;101111.22;4971165;28;97024;-80
2022/10/28 01:33:50;;;;;;;;;;;;;;;13.75;68.33;101109.59;4984684;28;101875;-79
2022/10/28 01:36:29;;;;;;;18.23;13.35;;;;;;;13.75;67.87;101112.22;4986382;28;97954;-79
2022/10/28 01:39:03;;;;;;;16.88;12.90;;;;;;;13.70;67.93;101104.50;4969186;28;97131;-79
2022/10/28 01:41:31;;;;;;;18.08;13.75;;;;;;;13.71;68.57;101105.34;4994166;28;96678;-79
2022/10/28 01:44:06;;;;;;;16.05;13.38;;;;;;;13.57;67.73;101077.66;4980416;28;101532;-79
2022/10/28 01:47:07;;;;;;;19.20;14.50;;;;;;;13.68;68.57;101098.41;4976100;28;100566;-79
2022/10/28 01:49:50;;;;;;;17.50;14.10;;;;;;;13.63;68.58;101099.47;4961197;28;96937;-79
2022/10/28 01:52:21;;;;;;;19.52;13.52;;;;;;;13.50;68.71;101086.72;5000336;28;97145;-79
2022/10/28 01:54:50;;;;;;;17.67;14.60;;;;;;;13.61;68.89;101082.81;4969513;28;101883;-79
2022/10/28 01:57:17;;;;;;;24.23;14.23;;;;;;;13.69;68.51;101083.44;4995190;28;98040;-82
2022/10/28 01:59:44;;;;;;;20.33;14.07;;;;;;;13.63;68.62;101081.00;4986792;28;97114;-79
2022/10/28 02:02:09;;;;;;;23.90;14.23;;;;;;;13.40;69.28;101050.13;5020029;28;96879;-79
2022/10/28 02:04:35;;;;;;;26.13;15.68;;;;;;;13.54;69.66;101064.56;4979163;28;101283;-79
2022/10/28 02:07:00;;;;;;;23.52;14.32;;;;;;;13.48;70.26;101071.84;4978736;28;101457;-79
2022/10/28 02:09:57;;;;;;;21.88;14.52;;;;;;;13.49;69.86;101077.06;4995788;28;97149;-79
2022/10/28 02:12:30;;;;;;;18.08;13.70;;;;;;;13.51;69.93;101077.00;4995956;28;96844;-80
2022/10/28 02:15:17;;;;;;;21.25;13.23;;;;;;;13.55;69.81;101068.94;4986097;28;101834;-80
2022/10/28 02:17:52;;;;;;;18.20;13.90;;;;;;;13.56;69.48;101065.41;5000151;28;101690;-79
2022/10/28 02:20:26;;;;;;;19.52;14.02;;;;;;;13.57;70.25;101068.88;4995975;28;96947;-81
2022/10/28 02:23:07;;;;;;;19.35;13.07;;;;;;;13.44;70.27;101046.47;4976025;28;97083;-79
2022/10/28 02:26:06;;;;;;;21.98;14.20;;;;;;;13.51;69.61;101062.03;4987707;28;101379;-79
2022/10/28 02:28:44;;;;;;;28.27;13.73;;;;;;;13.55;69.25;101060.16;5005366;28;101851;-80
2022/10/28 02:31:19;;;;;;;18.02;13.35;;;;;;;13.56;69.67;101070.66;4961132;28;97074;-81
2022/10/28 02:33:50;;;;;;;19.60;13.77;;;;;;;13.53;69.14;101068.13;4966294;28;97608;-80
2022/10/28 02:40:14;;;;;;;18.23;14.05;;;;;;;13.45;68.96;101064.91;5166104;22;103051;-81
2022/10/28 02:42:47;;;;;;;21.40;14.30;;;;;;;13.40;69.00;101061.53;4954836;28;96960;-80
2022/10/28 02:45:16;;;;;;;21.50;12.77;;;;;;;13.33;69.26;101052.13;4948162;28;96916;-81
2022/10/28 02:47:48;;;;;;;20.27;13.60;;;;;;;13.43;68.36;101068.50;4955082;28;97808;-81
2022/10/28 02:50:16;;;;;;;17.60;13.27;;;;;;;13.42;68.83;101062.38;4938043;28;101219;-80
2022/10/28 02:52:45;;;;;;;17.17;13.52;;;;;;;13.37;68.66;101059.00;4956123;28;96790;-80
2022/10/28 02:55:11;;;;;;;20.27;13.57;;;;;;;13.32;68.44;101047.75;4941088;28;97661;-81
2022/10/28 02:57:40;;;;;;;21.80;13.80;;;;;;;13.39;68.57;101056.34;4955743;28;97468;-80
2022/10/28 03:00:10;;;;;;;22.10;14.02;;;;;;;13.29;69.17;101045.22;4939597;28;101089;-81
2022/10/28 03:02:36;;;;;;;19.63;13.88;;;;;;;13.35;68.79;101059.09;4943803;28;96764;-81
2022/10/28 03:05:03;;;;;;;18.17;13.30;;;;;;;13.39;69.21;101065.09;4939552;28;98212;-80
2022/10/28 03:07:29;;;;;;;17.90;12.20;;;;;;;13.28;69.65;101057.56;4939067;28;101621;-80
2022/10/28 03:09:54;;;;;;;18.67;12.88;;;;;;;13.26;69.25;101063.78;4952927;28;97871;-81
2022/10/28 03:12:20;;;;;;;22.45;13.95;;;;;;;13.20;68.89;101050.78;4938534;28;97386;-81
2022/10/28 03:14:45;;;;;;;21.48;14.48;;;;;;;13.24;68.29;101058.53;4955702;28;97351;-80
2022/10/28 03:17:11;;;;;;;18.38;13.60;;;;;;;13.29;68.78;101059.28;4930151;28;101734;-80
2022/10/28 03:19:36;;;;;;;21.90;13.98;;;;;;;13.26;68.81;101042.69;4950019;28;101358;-81
2022/10/28 03:22:02;;;;;;;18.27;13.38;;;;;;;13.32;68.93;101055.66;4939887;28;96716;-80
2022/10/28 03:24:27;;;;;;;20.52;13.10;;;;;;;13.24;68.92;101053.28;4953602;28;97019;-80
2022/10/28 03:26:53;;;;;;;19.30;13.45;;;;;;;13.26;69.56;101048.81;4955191;28;101564;-79
2022/10/28 03:29:18;;;;;;;16.50;12.23;;;;;;;13.13;69.39;101032.53;4957429;28;97400;-84
2022/10/28 03:31:44;;;;;;;23.15;13.85;;;;;;;13.25;69.10;101056.75;4956452;28;96680;-80
2022/10/28 03:34:10;;;;;;;21.42;13.65;;;;;;;13.19;69.16;101049.91;4960720;28;97623;-80
2022/10/28 03:36:35;;;;;;;19.10;12.65;;;;;;;13.08;69.33;101037.09;4950140;28;97644;-81
2022/10/28 03:39:01;;;;;;;17.90;12.60;;;;;;;13.20;68.83;101056.03;4933605;28;101331;-81
2022/10/28 03:41:26;;;;;;;21.63;14.10;;;;;;;13.19;68.99;101047.28;4973867;28;97135;-80
2022/10/28 03:43:52;;;;;;;19.02;13.35;;;;;;;13.23;69.19;101048.03;4935996;28;97098;-80
2022/10/28 03:46:17;;;;;;;18.90;13.73;;;;;;;13.21;68.97;101050.75;4955461;28;101162;-83
2022/10/28 03:48:43;;;;;;;21.48;13.35;;;;;;;13.25;69.48;101044.47;4954752;28;98746;-80
2022/10/28 03:51:09;;;;;;;19.90;12.60;;;;;;;13.21;69.63;101039.34;4948066;28;96892;-80
2022/10/28 03:53:34;;;;;;;19.38;13.80;;;;;;;13.14;69.88;101042.16;4934591;28;97282;-80
2022/10/28 03:56:00;;;;;;;21.05;13.80;;;;;;;13.09;69.33;101032.69;4955809;28;98666;-81
2022/10/28 03:58:26;;;;;;;19.38;14.40;;;;;;;13.11;69.62;101026.44;4938132;28;101459;-80
2022/10/28 04:00:54;;;;;;;22.23;14.13;;;;;;;13.12;69.36;101041.38;4966764;28;97057;-80
2022/10/28 04:03:21;;;;;;;27.77;14.63;;;;;;;13.19;69.83;101043.78;4925698;28;97262;-83
2022/10/28 04:05:47;;;;;;;18.15;13.20;;;;;;;13.20;70.10;101048.13;4935106;28;101309;-80
2022/10/28 04:08:13;;;;;;;20.27;13.25;;;;;;;13.15;70.69;101035.13;4971657;28;97312;-80
2022/10/28 04:10:39;;;;;;;19.42;13.45;;;;;;;13.12;70.50;101037.88;4938856;28;97308;-80
2022/10/28 04:13:06;;;;;;;21.27;13.70;;;;;;;13.17;69.99;101038.56;4935618;28;97190;-80
2022/10/28 04:15:32;;;;;;;20.48;13.88;;;;;;;13.12;70.40;101041.38;4926016;28;101498;-80
2022/10/28 04:17:58;;;;;;;20.33;13.68;;;;;;;13.13;70.06;101045.72;4937048;28;101267;-80
2022/10/28 04:20:24;;;;;;;35.60;13.82;;;;;;;13.13;69.91;101045.72;4938350;28;96730;-80
2022/10/28 04:22:49;;;;;;;19.58;12.82;;;;;;;13.14;70.31;101036.03;4938684;28;97292;-80
2022/10/28 04:25:15;;;;;;;19.38;14.23;;;;;;;13.08;70.28;101042.34;4975251;28;97521;-80
2022/10/28 04:27:44;;;;;;;21.88;14.20;;;;;;;13.03;70.91;101024.97;4937811;28;101562;-81
2022/10/28 04:30:11;;;;;;;20.73;13.32;;;;;;;13.01;70.54;101021.53;4939263;28;96994;-81
2022/10/28 04:32:38;;;;;;;19.75;12.45;;;;;;;13.12;70.25;101024.69;4941642;28;97383;-81
2022/10/28 04:35:04;;;;;;;23.38;13.73;;;;;;;13.06;70.67;101022.22;4949141;28;101143;-81
2022/10/28 04:37:29;;;;;;;21.80;14.57;;;;;;;13.05;70.77;101018.75;4956137;28;100954;-81
2022/10/28 04:39:55;;;;;;;23.33;12.57;;;;;;;13.03;70.30;101011.78;4972626;28;97125;-81
2022/10/28 04:42:22;;;;;;;18.80;13.23;;;;;;;12.99;71.13;101018.94;4940494;28;97269;-82
2022/10/28 04:44:47;;;;;;;17.20;11.73;;;;;;;13.01;71.15;101019.78;4950360;28;97471;-80
2022/10/28 04:47:13;;;;;;;24.98;12.93;;;;;;;13.02;71.23;101018.84;4963736;28;100874;-80
2022/10/28 04:49:39;;;;;;;20.00;12.23;;;;;;;13.04;70.62;101018.81;4948526;28;96966;-80
2022/10/28 04:52:04;;;;;;;21.27;12.38;;;;;;;12.99;70.96;101003.13;4953733;28;96699;-81
2022/10/28 04:54:30;;;;;;;21.02;12.70;;;;;;;12.93;70.86;100991.94;4945104;28;97588;-83
2022/10/28 04:56:55;;;;;;;26.02;12.85;;;;;;;12.88;70.60;100986.81;4937708;28;99844;-81
2022/10/28 04:59:21;;;;;;;21.30;12.60;;;;;;;13.01;70.74;101005.72;4972174;28;96807;-87
2022/10/28 05:01:46;;;;;;;17.15;12.27;;;;;;;12.86;71.25;100994.78;4949711;28;97206;-81
2022/10/28 05:04:12;;;;;;;19.10;12.38;;;;;;;13.02;71.13;101015.34;4937748;28;101301;-86
2022/10/28 05:06:38;;;;;;;19.55;12.73;;;;;;;12.93;71.42;101019.16;4936771;28;98568;-81
2022/10/28 05:09:03;;;;;;;18.45;12.10;;;;;;;12.99;71.40;101026.84;4941026;28;98281;-81
2022/10/28 05:11:29;;;;;;;18.17;13.38;;;;;;;12.98;71.71;101011.97;4953362;28;97010;-81
2022/10/28 05:13:54;;;;;;;19.13;11.57;;;;;;;12.98;71.59;101011.97;4939057;28;101841;-80
2022/10/28 05:16:20;;;;;;;20.48;12.15;;;;;;;12.95;71.31;101006.78;4949909;28;101394;-80
2022/10/28 05:18:46;;;;;;;21.10;12.80;;;;;;;12.94;71.83;101009.47;4944886;28;96759;-89
2022/10/28 05:21:12;;;;;;;15.48;11.55;;;;;;;12.93;71.58;101011.25;4977608;28;97985;-87
2022/10/28 05:23:37;;;;;;;17.63;11.50;;;;;;;12.96;71.59;101015.56;4920379;28;100383;-92
2022/10/28 05:26:03;;;;;;;17.55;12.18;;;;;;;13.01;71.58;101008.38;4940671;28;100352;-87
2022/10/28 05:28:28;;;;;;;15.18;11.80;;;;;;;12.97;71.64;101004.94;4953947;28;96925;-91
2022/10/28 05:30:54;;;;;;;17.25;12.40;;;;;;;12.96;71.93;101019.03;4946060;28;97084;-92
2022/10/28 05:33:19;;;;;;;19.48;13.00;;;;;;;12.83;71.32;100988.75;4950595;28;101112;-88
2022/10/28 05:35:45;;;;;;;16.60;12.27;;;;;;;12.84;71.42;101001.00;4952710;28;101595;-87
2022/10/28 05:38:12;;;;;;;18.98;12.20;;;;;;;12.93;71.68;101008.59;4949736;28;96933;-90
2022/10/28 05:40:38;;;;;;;17.13;11.68;;;;;;;12.78;71.97;100994.16;4919039;28;97333;-91
2022/10/28 05:43:04;;;;;;;15.95;12.35;;;;;;;12.79;71.68;101002.94;4939711;28;101009;-90
2022/10/28 05:45:30;;;;;;;19.08;11.85;;;;;;;12.91;71.77;101019.22;4919009;28;101337;-89
2022/10/28 05:47:56;;;;;;;18.95;11.95;;;;;;;12.93;71.23;101024.41;4951402;28;96815;-91
2022/10/28 05:50:23;;;;;;;25.88;13.07;;;;;;;12.93;71.59;101011.25;4942964;28;97401;-86
2022/10/28 05:52:50;;;;;;;19.98;13.05;;;;;;;12.74;71.89;101013.63;4942662;28;101403;-85
2022/10/28 05:55:20;;;;;;;24.27;13.15;;;;;;;12.76;71.80;101000.41;4942627;28;101244;-83
2022/10/28 05:57:47;;;;;;;18.10;12.82;;;;;;;12.88;71.82;101013.16;4935721;28;97349;-93
2022/10/28 06:00:13;;;;;;;19.25;12.45;;;;;;;12.86;71.84;101021.13;4911614;28;97017;-85
2022/10/28 06:02:40;;;;;;;18.50;11.55;;;;;;;12.82;72.12;101008.09;4938800;28;101300;-83
2022/10/28 06:05:06;;;;;;;20.35;12.95;;;;;;;12.85;72.09;101010.63;4935654;28;101467;-83
2022/10/28 06:07:33;;;;;;;17.50;11.73;;;;;;;12.73;71.43;100987.31;4924220;28;97095;-82
2022/10/28 06:09:59;;;;;;;28.58;13.73;;;;;;;12.94;71.27;101005.06;4946364;28;97449;-82
2022/10/28 06:12:25;;;;;;;21.58;13.00;;;;;;;12.86;71.52;101002.69;4939846;28;101162;-83
2022/10/28 06:14:51;;;;;;;20.17;11.75;;;;;;;12.94;71.74;101012.97;4920197;28;100607;-82
2022/10/28 06:17:16;;;;;;;23.85;13.65;;;;;;;13.04;71.13;101019.66;4947284;28;96724;-81
2022/10/28 06:19:42;;;;;;;16.95;12.85;;;;;;;13.00;71.41;101009.25;4924713;28;96992;-81
2022/10/28 06:22:07;;;;;;;21.58;12.30;;;;;;;13.02;71.67;101004.81;4924107;28;101842;-82
2022/10/28 06:24:33;;;;;;;20.08;13.65;;;;;;;12.96;71.44;100994.47;4940475;28;97945;-81
2022/10/28 06:26:58;;;;;;;18.80;12.13;;;;;;;12.92;71.81;101012.16;4921581;28;97506;-81
2022/10/28 06:29:24;;;;;;;20.75;12.98;;;;;;;12.91;71.63;101011.31;4932532;28;97454;-84
2022/10/28 06:31:49;;;;;;;22.65;12.98;;;;;;;12.95;71.70;101005.94;4936948;28;101626;-79
2022/10/28 06:34:15;;;;;;;19.33;13.38;;;;;;;13.05;71.64;101015.25;4942731;28;100868;-82
2022/10/28 06:36:41;;;;;;;22.13;13.38;;;;;;;13.10;71.64;101010.69;4938055;28;96996;-81
2022/10/28 06:39:06;;;;;;;29.25;14.35;;;;;;;13.13;71.06;101007.94;4954025;28;98030;-79
2022/10/28 06:41:32;;;;;;;21.08;13.02;;;;;;;13.08;72.09;101020.41;4955925;28;101615;-79
2022/10/28 06:43:58;;;;;;;18.85;11.80;;;;;;;13.13;71.89;101015.84;4940728;28;98061;-79
2022/10/28 06:46:23;;;;;;;18.33;12.55;;;;;;;13.16;71.71;101028.94;4942486;28;97879;-81
2022/10/28 06:48:49;;;;;;;18.10;12.50;;;;;;;13.14;71.81;101030.75;4920247;28;97227;-79
2022/10/28 06:51:16;;;;;;;20.92;12.80;;;;;;;13.27;71.34;101026.84;4963253;28;101434;-83
2022/10/28 06:53:42;;;;;;;24.85;13.07;;;;;;;13.38;71.55;101038.78;4948725;28;97542;-82
2022/10/28 06:56:08;;;;;;;24.35;14.48;;;;;;;13.45;71.30;101032.41;4939688;28;96766;-82
2022/10/28 06:58:33;;;;;;;21.42;12.13;;;;;;;13.60;72.04;101031.84;4932839;28;96956;-81
2022/10/28 07:01:03;;;;;;;21.83;12.27;;;;;;;13.93;71.48;101031.53;4948460;28;101468;-82
2022/10/28 07:03:29;;;;;;;24.08;13.18;;;;;;;14.26;70.89;101024.16;4939209;28;101859;-82
2022/10/28 07:05:54;;;;;;;21.50;12.43;;;;;;;14.57;69.49;101021.19;4950487;28;98040;-81
2022/10/28 07:08:20;;;;;;;21.60;13.15;;;;;;;14.88;69.09;101027.91;4933352;28;98552;-81
2022/10/28 07:10:57;;;;;;;21.00;12.57;;;;;;;14.92;68.88;101019.81;4937270;28;100482;-81
2022/10/28 07:13:23;;;;;;;19.33;11.30;;;;;;;15.01;68.49;101034.44;4980996;28;97616;-81
2022/10/28 07:15:57;;;;;;;49.70;16.30;;;;;;;15.06;68.79;101032.44;4938093;28;97673;-81
2022/10/28 07:18:23;;;;;;;37.97;15.00;;;;;;;15.14;68.65;101025.06;4957489;28;96870;-80
2022/10/28 07:20:49;;;;;;;55.50;15.20;;;;;;;15.16;68.95;101028.50;4936778;28;98060;-80
2022/10/28 07:23:15;;;;;;;26.63;12.10;;;;;;;15.10;69.01;101022.63;4936936;28;100939;-82
2022/10/28 07:25:41;;;;;;;15.32;11.63;;;;;;;15.11;68.84;101022.53;4942208;28;96729;-81
2022/10/28 07:28:06;;;;;;;16.98;11.02;;;;;;;15.10;69.05;101028.75;4934551;28;96766;-82
2022/10/28 07:30:32;;;;;;;34.53;12.65;;;;;;;15.00;69.44;101016.81;4938104;28;101454;-82
2022/10/28 07:32:59;;;;;;;18.95;11.65;;;;;;;15.32;69.22;101017.25;4923182;28;101463;-83
2022/10/28 07:35:27;;;;;;;17.80;10.85;;;;;;;15.51;69.24;101023.50;4955952;28;97153;-80
2022/10/28 07:37:53;;;;;;;19.88;10.68;;;;;;;15.77;69.04;101029.47;4950279;28;96836;-80
2022/10/28 07:40:23;;;;;;;16.65;10.45;;;;;;;16.02;67.83;101037.16;4949452;28;101138;-82
2022/10/28 07:42:48;;;;;;;13.77;9.45;;;;;;;16.21;67.71;101037.19;4931737;28;101323;-79
2022/10/28 07:45:14;;;;;;;17.38;10.10;;;;;;;16.29;67.57;101016.50;4940158;28;97271;-78
2022/10/28 07:47:40;;;;;;;16.02;9.52;;;;;;;16.55;67.43;101030.28;4934344;28;97284;-80
2022/10/28 07:50:06;;;;;;;14.48;9.13;;;;;;;16.65;66.59;101013.03;4909098;28;100984;-82
2022/10/28 07:52:33;;;;;;;16.73;9.13;;;;;;;16.88;66.63;101018.09;4960217;28;101753;-83
2022/10/28 07:54:59;;;;;;;16.95;8.48;;;;;;;17.01;66.05;101039.53;4950269;28;97788;-80
2022/10/28 07:57:24;;;;;;;15.07;9.02;;;;;;;17.17;66.58;101024.59;4944215;28;97462;-80
2022/10/28 07:59:50;;;;;;;14.25;7.57;;;;;;;17.48;65.90;101033.63;4938201;28;101228;-78
2022/10/28 08:02:18;;;;;;;14.55;8.13;;;;;;;17.74;65.23;101031.41;4957442;28;100934;-80
2022/10/28 08:04:43;;;;;;;12.95;7.45;;;;;;;17.70;65.03;101027.22;4952999;28;97285;-77
2022/10/28 08:07:09;;;;;;;13.55;7.90;;;;;;;17.78;64.78;101022.41;4946941;28;97146;-79
2022/10/28 08:09:35;;;;;;;9.15;7.60;;;;;;;17.73;64.91;101021.75;4943277;28;101241;-84
2022/10/28 08:12:00;;;;;;;14.75;8.00;;;;;;;17.72;65.15;101009.44;4968862;28;98096;-80
2022/10/28 08:14:26;;;;;;;13.00;6.40;;;;;;;18.00;64.76;101019.44;4955412;28;96885;-80
2022/10/28 08:16:51;;;;;;;15.25;6.90;;;;;;;18.50;64.09;101008.72;4975612;28;97745;-79
2022/10/28 08:19:17;;;;;;;15.85;8.00;;;;;;;18.79;63.53;101008.84;4971324;28;97361;-79
2022/10/28 08:21:42;;;;;;;11.02;6.43;;;;;;;18.78;62.95;101018.66;4971818;28;98633;-79
2022/10/28 08:24:08;;;;;;;7.93;5.78;;;;;;;19.00;62.55;101004.97;4937370;28;97195;-77
2022/10/28 08:26:33;;;;;;;9.38;6.32;;;;;;;19.23;61.95;101005.44;4937715;28;96967;-86
2022/10/28 08:29:00;;;;;;;11.85;6.68;;;;;;;19.59;61.21;100999.69;4931430;28;101442;-84
2022/10/28 08:31:26;;;;;;;18.17;6.75;;;;;;;19.87;60.09;100996.22;4924066;28;101491;-88
2022/10/28 08:33:51;;;;;;;7.63;5.85;;;;;;;20.15;59.77;101001.63;4919390;28;96791;-85
2022/10/28 08:36:17;;;;;;;14.82;6.32;;;;;;;20.21;58.60;100971.91;4962696;28;96836;-83
2022/10/28 08:38:46;;;;;;;9.77;5.85;;;;;;;20.72;58.27;100990.84;4960029;28;101771;-84
2022/10/28 08:41:30;;;;;;;7.93;5.53;;;;;;;21.25;57.08;100997.91;4940806;28;101388;-84
2022/10/28 08:44:11;;;;;;;10.93;5.95;;;;;;;21.57;56.79;100996.69;4935580;28;97198;-84
2022/10/28 08:46:36;;;;;;;10.88;5.00;;;;;;;21.78;56.14;100997.00;4954407;28;96794;-85
2022/10/28 08:49:08;;;;;;;14.93;5.30;;;;;;;22.20;55.75;100995.81;4954907;28;101413;-86
2022/10/28 08:51:40;;;;;;;7.68;4.80;;;;;;;22.54;55.10;101001.34;4951401;28;100931;-86
2022/10/28 08:54:12;;;;;;;7.45;4.50;;;;;;;22.69;54.58;100988.66;4962697;28;97210;-89
2022/10/28 08:56:46;;;;;;;8.68;4.72;;;;;;;22.93;54.36;101007.41;4943278;28;97928;-81
2022/10/28 08:59:26;;;;;;;5.95;3.85;;;;;;;23.12;54.15;100994.34;4943059;28;101121;-84
2022/10/28 09:02:02;;;;;;;8.32;4.75;;;;;;;23.56;53.51;101003.50;4947230;28;101545;-86
2022/10/28 09:04:45;;;;;;;5.90;4.38;;;;;;;24.03;52.45;100998.03;4968643;28;97148;-85
2022/10/28 09:07:19;;;;;;;6.40;3.72;;;;;;;24.32;51.60;100996.56;4936621;28;97363;-85
2022/10/28 09:09:46;;;;;;;4.85;3.63;;;;;;;24.50;50.98;101004.13;4935564;28;101217;-85
2022/10/28 09:12:15;;;;;;;12.32;3.80;;;;;;;24.64;50.80;101001.16;4947256;28;101600;-84
2022/10/28 09:15:17;;;;;;;11.25;4.28;;;;;;;24.92;50.70;100988.09;4952399;28;97386;-84
2022/10/28 09:17:43;;;;;;;6.97;3.50;;;;;;;24.70;50.76;100994.44;4955013;28;97128;-84
2022/10/28 09:20:17;;;;;;;4.05;3.08;;;;;;;24.69;50.88;100987.34;4937554;28;100309;-84
2022/10/28 09:22:56;;;;;;;9.65;4.22;;;;;;;24.69;50.23;100992.72;4917655;28;102038;-83
2022/10/28 09:25:38;;;;;;;9.57;3.28;;;;;;;24.82;49.60;100993.41;4958539;28;96887;-85
2022/10/28 09:28:28;;;;;;;9.82;2.97;;;;;;;24.87;48.90;100996.56;4953147;28;96960;-85
2022/10/28 09:31:03;;;;;;;8.57;3.37;;;;;;;24.96;49.46;100992.22;4954822;28;98767;-84
2022/10/28 09:33:49;;;;;;;13.90;4.82;;;;;;;25.18;48.15;100988.63;4955051;28;99712;-85
2022/10/28 09:36:32;;;;;;;7.13;2.80;;;;;;;25.22;48.02;100982.88;4947926;28;97315;-85
2022/10/28 09:38:58;;;;;;;6.20;2.42;;;;;;;25.22;48.69;100979.31;4968181;28;97156;-85
2022/10/28 09:41:27;;;;;;;7.82;3.08;;;;;;;25.28;48.62;100985.03;4923875;28;101692;-85
2022/10/28 09:43:56;;;;;;;9.18;3.40;;;;;;;25.25;48.62;100984.44;4956328;28;98346;-86
2022/10/28 09:46:22;;;;;;;9.00;3.00;;;;;;;25.03;49.07;100982.69;4939320;28;97093;-86
2022/10/28 09:48:50;;;;;;;3.45;2.20;;;;;;;24.90;48.61;100982.88;4952322;28;97096;-86
2022/10/28 09:51:37;;;;;;;7.05;2.75;;;;;;;24.51;49.75;100989.72;4937727;28;98124;-84
2022/10/28 09:54:03;;;;;;;3.90;2.90;;;;;;;24.45;49.39;100990.22;4953761;28;101101;-84
2022/10/28 09:56:29;;;;;;;4.40;2.40;;;;;;;24.35;50.02;100984.75;4937364;28;97428;-84
2022/10/28 09:58:58;;;;;;;5.45;2.50;;;;;;;24.39;50.30;100978.13;4943445;28;97162;-83
2022/10/28 10:01:23;;;;;;;7.10;2.50;;;;;;;24.49;49.75;100971.03;4951905;28;97888;-85
2022/10/28 10:03:50;;;;;;;5.78;2.30;;;;;;;24.55;49.82;100962.53;4954798;28;101602;-81
2022/10/28 10:06:35;;;;;;;6.50;2.65;;;;;;;24.71;49.38;100971.97;4954490;28;96992;-79
2022/10/28 10:09:02;;;;;;;6.18;2.40;;;;;;;24.62;48.62;100961.00;4933382;28;96988;-81
2022/10/28 10:11:35;;;;;;;5.47;2.45;;;;;;;24.70;49.07;100976.50;4967580;28;98166;-76
2022/10/28 10:14:06;;;;;;;6.15;1.95;;;;;;;24.58;48.85;100973.00;4958949;28;101449;-79
2022/10/28 10:16:32;;;;;;;5.68;2.40;;;;;;;24.40;49.56;100979.81;4940219;28;97150;-78
2022/10/28 10:18:58;;;;;;;7.65;2.60;;;;;;;24.30;50.11;100973.53;4950731;28;97413;-78
2022/10/28 10:21:41;;;;;;;5.15;3.05;;;;;;;24.47;49.26;100958.75;4920831;28;101356;-78
2022/10/28 10:24:25;;;;;;;10.50;2.67;;;;;;;24.38;48.78;100974.59;4937849;28;101271;-79
2022/10/28 10:26:51;;;;;;;4.97;2.38;;;;;;;24.20;48.46;100964.50;4961995;28;97374;-79
2022/10/28 10:29:17;;;;;;;4.85;2.30;;;;;;;23.99;49.04;100973.31;4933952;28;97256;-79
2022/10/28 10:31:43;;;;;;;4.35;2.40;;;;;;;23.74;50.23;100966.38;4950123;28;101877;-79
2022/10/28 10:34:36;;;;;;;5.55;2.47;;;;;;;23.63;52.04;100974.38;4935273;28;102300;-78
2022/10/28 10:37:01;;;;;;;9.15;2.50;;;;;;;23.75;50.33;100975.28;4945098;28;96888;-79
2022/10/28 10:39:35;;;;;;;7.45;2.22;;;;;;;23.59;50.62;100963.06;4939250;28;96997;-78
2022/10/28 10:42:01;;;;;;;7.53;2.72;;;;;;;23.40;52.05;100942.19;4948643;28;102106;-80
2022/10/28 10:44:32;;;;;;;12.13;2.70;;;;;;;23.43;51.84;100958.03;4951454;28;97630;-79
2022/10/28 10:47:01;;;;;;;6.30;2.60;;;;;;;23.52;50.94;100959.13;4954676;28;96991;-79
2022/10/28 10:49:28;;;;;;;8.52;2.83;;;;;;;23.46;50.52;100960.47;4936614;28;97305;-79
2022/10/28 10:51:57;;;;;;;7.63;3.22;;;;;;;23.24;51.67;100942.56;4920765;28;101260;-80
2022/10/28 10:54:24;;;;;;;5.97;2.60;;;;;;;23.30;51.62;100937.66;4947799;28;101552;-79
2022/10/28 10:56:50;;;;;;;4.53;2.38;;;;;;;23.31;52.04;100952.78;4962777;28;97317;-79
2022/10/28 10:59:28;;;;;;;5.35;2.63;;;;;;;23.17;52.35;100960.06;4948172;28;97451;-79
2022/10/28 11:01:55;;;;;;;10.85;3.10;;;;;;;22.98;53.51;100949.03;4936045;28;101574;-79
2022/10/28 11:04:22;;;;;;;5.80;3.00;;;;;;;23.03;51.42;100953.06;4951886;28;101672;-79
2022/10/28 11:06:50;;;;;;;11.65;2.97;;;;;;;23.00;51.45;100955.13;4946567;28;98512;-78
2022/10/28 11:09:27;;;;;;;6.43;2.80;;;;;;;22.89;52.62;100958.59;4950910;28;97214;-78
2022/10/28 11:11:54;;;;;;;6.53;2.90;;;;;;;22.94;51.98;100948.38;4946250;28;98079;-79
2022/10/28 11:14:23;;;;;;;8.90;3.03;;;;;;;22.75;53.30;100951.63;4917700;28;100987;-78
2022/10/28 11:16:54;;;;;;;7.70;3.08;;;;;;;22.80;52.93;100943.22;4919127;28;97622;-78
2022/10/28 11:19:27;;;;;;;9.85;2.70;;;;;;;22.74;52.31;100933.84;4935638;28;97154;-78
2022/10/28 11:21:56;;;;;;;7.65;2.90;;;;;;;22.71;53.10;100928.72;4952923;28;97604;-77
2022/10/28 11:24:46;;;;;;;6.57;2.45;;;;;;;22.59;53.22;100932.31;4953324;28;97534;-78